Bushy Park, Australia
Current Conditions -  °F | °C
As of 5:00 PM on Thursday 23 Oct 2014 (Local Time) from YMHB Reporting Station
Few Clouds Few Clouds  
Wind Chill: 59°   Ceiling: Unl
Heat Index: 59°   Visibility: 6mi
Dew Point: 39°   Wind: 12mph
Humidity: 48%   Direction: 130°SE
Pressure: 30.24"   Gusts: NA
Location:  42.7°S, 146.88°E
Report Text: YMHB 230600Z 13010KT 9999 FEW040 15/04 Q1024
Loading
Personal Weather Stations






























Interactive Weather Map New forecast layout! Learn more

10-Day Weather Forecast

Advertisements
Track Severe Weather on mobile